Terminal Aerodrome Forecast
Issued by NWS

Home | Current Version | Previous Version | Text Only | Print | Product List | Glossary On
Versions: 1 2 3 4 5 6 7 8 9 10 11 12 13 14 15 16 17
000
FTUS45 KGGW 282300
TAFSDY
TAF
KSDY 282326Z 2900/2924 35011KT P6SM VCTS FEW050CB BKN110
      TEMPO 2900/2902 VRB20G30KT 4SM -TSRA BKN050CB
     FM290300 01014KT P6SM BKN150
     FM291200 02010KT P6SM SCT250
      AMD LTD TO CLD VIS AND WIND=

USA.gov is the U.S. government's official web portal to all federal, state and local government web resources and services.